sensor_id;sensor_type;location;lat;lon;timestamp;P1;durP1;ratioP1;P2;durP2;ratioP2
54823;SDS011;40724;53.196;5.980;2022-07-21T00:01:47;18.92;;;9.85;;
54823;SDS011;40724;53.196;5.980;2022-07-21T00:04:13;13.55;;;8.23;;
54823;SDS011;40724;53.196;5.980;2022-07-21T00:06:41;16.65;;;11.50;;
54823;SDS011;40724;53.196;5.980;2022-07-21T00:09:07;13.45;;;9.00;;
54823;SDS011;40724;53.196;5.980;2022-07-21T00:11:34;12.85;;;9.98;;
54823;SDS011;40724;53.196;5.980;2022-07-21T00:14:00;13.95;;;10.15;;
54823;SDS011;40724;53.196;5.980;2022-07-21T00:16:26;21.02;;;11.13;;
54823;SDS011;40724;53.196;5.980;2022-07-21T00:18:53;14.70;;;11.27;;
54823;SDS011;40724;53.196;5.980;2022-07-21T00:21:19;16.77;;;11.93;;
54823;SDS011;40724;53.196;5.980;2022-07-21T00:23:45;18.15;;;11.27;;
54823;SDS011;40724;53.196;5.980;2022-07-21T00:26:11;17.15;;;13.10;;
54823;SDS011;40724;53.196;5.980;2022-07-21T00:28:37;18.13;;;13.32;;
54823;SDS011;40724;53.196;5.980;2022-07-21T00:31:04;17.40;;;12.00;;
54823;SDS011;40724;53.196;5.980;2022-07-21T00:33:30;16.67;;;12.43;;
54823;SDS011;40724;53.196;5.980;2022-07-21T00:35:56;16.42;;;12.98;;
54823;SDS011;40724;53.196;5.980;2022-07-21T00:38:22;19.17;;;14.02;;
54823;SDS011;40724;53.196;5.980;2022-07-21T00:40:48;23.83;;;15.95;;
54823;SDS011;40724;53.196;5.980;2022-07-21T00:43:14;21.52;;;14.45;;
54823;SDS011;40724;53.196;5.980;2022-07-21T00:45:41;21.60;;;15.77;;
54823;SDS011;40724;53.196;5.980;2022-07-21T00:48:07;25.75;;;16.73;;
54823;SDS011;40724;53.196;5.980;2022-07-21T00:50:33;19.02;;;15.45;;
54823;SDS011;40724;53.196;5.980;2022-07-21T00:52:59;21.90;;;16.60;;
54823;SDS011;40724;53.196;5.980;2022-07-21T00:55:25;23.00;;;16.75;;
54823;SDS011;40724;53.196;5.980;2022-07-21T00:57:52;24.92;;;16.85;;
54823;SDS011;40724;53.196;5.980;2022-07-21T01:00:20;24.95;;;17.27;;
54823;SDS011;40724;53.196;5.980;2022-07-21T01:02:46;21.35;;;16.48;;
54823;SDS011;40724;53.196;5.980;2022-07-21T01:05:13;24.23;;;17.00;;
54823;SDS011;40724;53.196;5.980;2022-07-21T01:07:45;29.10;;;19.45;;
54823;SDS011;40724;53.196;5.980;2022-07-21T01:10:12;23.48;;;16.60;;
54823;SDS011;40724;53.196;5.980;2022-07-21T01:12:38;26.60;;;17.88;;
54823;SDS011;40724;53.196;5.980;2022-07-21T01:15:06;22.77;;;16.27;;
54823;SDS011;40724;53.196;5.980;2022-07-21T01:17:33;22.30;;;16.95;;
54823;SDS011;40724;53.196;5.980;2022-07-21T01:20:03;26.63;;;18.98;;
54823;SDS011;40724;53.196;5.980;2022-07-21T01:22:31;23.52;;;18.80;;
54823;SDS011;40724;53.196;5.980;2022-07-21T01:24:57;24.58;;;17.10;;
54823;SDS011;40724;53.196;5.980;2022-07-21T01:27:25;27.60;;;19.17;;
54823;SDS011;40724;53.196;5.980;2022-07-21T01:29:51;27.63;;;19.27;;
54823;SDS011;40724;53.196;5.980;2022-07-21T01:32:17;25.98;;;19.52;;
54823;SDS011;40724;53.196;5.980;2022-07-21T01:34:43;23.08;;;18.48;;
54823;SDS011;40724;53.196;5.980;2022-07-21T01:37:09;22.38;;;18.23;;
54823;SDS011;40724;53.196;5.980;2022-07-21T01:39:35;24.33;;;18.65;;
54823;SDS011;40724;53.196;5.980;2022-07-21T01:42:20;27.85;;;20.38;;
54823;SDS011;40724;53.196;5.980;2022-07-21T01:44:48;23.48;;;18.60;;
54823;SDS011;40724;53.196;5.980;2022-07-21T01:47:14;25.15;;;18.73;;
54823;SDS011;40724;53.196;5.980;2022-07-21T01:49:42;26.80;;;20.63;;
54823;SDS011;40724;53.196;5.980;2022-07-21T01:52:09;29.45;;;20.45;;
54823;SDS011;40724;53.196;5.980;2022-07-21T01:54:35;29.63;;;19.77;;
54823;SDS011;40724;53.196;5.980;2022-07-21T01:57:01;28.10;;;19.65;;
54823;SDS011;40724;53.196;5.980;2022-07-21T01:59:28;29.02;;;20.90;;
54823;SDS011;40724;53.196;5.980;2022-07-21T02:01:54;22.88;;;19.92;;
54823;SDS011;40724;53.196;5.980;2022-07-21T02:04:20;26.35;;;20.20;;
54823;SDS011;40724;53.196;5.980;2022-07-21T02:06:47;27.10;;;20.83;;
54823;SDS011;40724;53.196;5.980;2022-07-21T02:09:13;32.50;;;22.05;;
54823;SDS011;40724;53.196;5.980;2022-07-21T02:11:39;26.90;;;20.30;;
54823;SDS011;40724;53.196;5.980;2022-07-21T02:14:05;26.98;;;20.27;;
54823;SDS011;40724;53.196;5.980;2022-07-21T02:16:32;25.60;;;21.33;;
54823;SDS011;40724;53.196;5.980;2022-07-21T02:18:58;31.67;;;22.90;;
54823;SDS011;40724;53.196;5.980;2022-07-21T02:21:24;32.20;;;24.08;;
54823;SDS011;40724;53.196;5.980;2022-07-21T02:23:51;33.10;;;24.00;;
54823;SDS011;40724;53.196;5.980;2022-07-21T02:26:17;32.70;;;23.90;;
54823;SDS011;40724;53.196;5.980;2022-07-21T02:28:43;31.25;;;25.05;;
54823;SDS011;40724;53.196;5.980;2022-07-21T02:31:09;33.50;;;24.67;;
54823;SDS011;40724;53.196;5.980;2022-07-21T02:33:35;33.10;;;22.85;;
54823;SDS011;40724;53.196;5.980;2022-07-21T02:36:02;36.47;;;23.88;;
54823;SDS011;40724;53.196;5.980;2022-07-21T02:38:29;30.60;;;23.55;;
54823;SDS011;40724;53.196;5.980;2022-07-21T02:40:55;31.00;;;22.40;;
54823;SDS011;40724;53.196;5.980;2022-07-21T02:43:21;27.83;;;20.77;;
54823;SDS011;40724;53.196;5.980;2022-07-21T02:45:47;29.75;;;22.35;;
54823;SDS011;40724;53.196;5.980;2022-07-21T02:48:14;31.70;;;21.30;;
54823;SDS011;40724;53.196;5.980;2022-07-21T02:50:41;33.95;;;23.08;;
54823;SDS011;40724;53.196;5.980;2022-07-21T02:53:15;29.67;;;22.83;;
54823;SDS011;40724;53.196;5.980;2022-07-21T02:55:48;30.15;;;22.33;;
54823;SDS011;40724;53.196;5.980;2022-07-21T02:58:21;30.75;;;23.48;;
54823;SDS011;40724;53.196;5.980;2022-07-21T03:00:53;30.83;;;22.70;;
54823;SDS011;40724;53.196;5.980;2022-07-21T03:03:20;31.15;;;22.42;;
54823;SDS011;40724;53.196;5.980;2022-07-21T03:05:47;27.42;;;21.73;;
54823;SDS011;40724;53.196;5.980;2022-07-21T03:08:13;33.75;;;24.40;;
54823;SDS011;40724;53.196;5.980;2022-07-21T03:10:39;31.33;;;23.95;;
54823;SDS011;40724;53.196;5.980;2022-07-21T03:13:06;28.92;;;22.77;;
54823;SDS011;40724;53.196;5.980;2022-07-21T03:15:32;30.50;;;23.42;;
54823;SDS011;40724;53.196;5.980;2022-07-21T03:17:58;32.38;;;22.13;;
54823;SDS011;40724;53.196;5.980;2022-07-21T03:20:29;30.52;;;22.70;;
54823;SDS011;40724;53.196;5.980;2022-07-21T03:22:55;32.10;;;22.45;;
54823;SDS011;40724;53.196;5.980;2022-07-21T03:25:22;28.75;;;22.75;;
54823;SDS011;40724;53.196;5.980;2022-07-21T03:27:48;26.92;;;20.25;;
54823;SDS011;40724;53.196;5.980;2022-07-21T03:30:15;25.23;;;21.42;;
54823;SDS011;40724;53.196;5.980;2022-07-21T03:32:41;30.38;;;23.63;;
54823;SDS011;40724;53.196;5.980;2022-07-21T03:35:08;29.08;;;21.85;;
54823;SDS011;40724;53.196;5.980;2022-07-21T03:37:46;31.73;;;21.38;;
54823;SDS011;40724;53.196;5.980;2022-07-21T03:40:14;29.60;;;21.58;;
54823;SDS011;40724;53.196;5.980;2022-07-21T03:42:41;31.67;;;22.02;;
54823;SDS011;40724;53.196;5.980;2022-07-21T03:45:07;29.08;;;21.27;;
54823;SDS011;40724;53.196;5.980;2022-07-21T03:47:34;26.17;;;19.75;;
54823;SDS011;40724;53.196;5.980;2022-07-21T03:50:00;27.27;;;20.58;;
54823;SDS011;40724;53.196;5.980;2022-07-21T03:52:27;26.23;;;22.17;;
54823;SDS011;40724;53.196;5.980;2022-07-21T03:54:53;33.05;;;20.40;;
54823;SDS011;40724;53.196;5.980;2022-07-21T03:57:39;25.88;;;20.25;;
54823;SDS011;40724;53.196;5.980;2022-07-21T04:00:06;26.35;;;20.55;;
54823;SDS011;40724;53.196;5.980;2022-07-21T04:02:33;28.60;;;21.15;;
54823;SDS011;40724;53.196;5.980;2022-07-21T04:04:59;24.80;;;18.63;;
54823;SDS011;40724;53.196;5.980;2022-07-21T04:07:25;28.58;;;21.02;;
54823;SDS011;40724;53.196;5.980;2022-07-21T04:09:51;22.48;;;18.50;;
54823;SDS011;40724;53.196;5.980;2022-07-21T04:12:18;22.67;;;19.23;;
54823;SDS011;40724;53.196;5.980;2022-07-21T04:14:45;27.40;;;19.42;;
54823;SDS011;40724;53.196;5.980;2022-07-21T04:17:13;28.90;;;20.70;;
54823;SDS011;40724;53.196;5.980;2022-07-21T04:19:40;27.65;;;21.20;;
54823;SDS011;40724;53.196;5.980;2022-07-21T04:22:06;24.08;;;20.20;;
54823;SDS011;40724;53.196;5.980;2022-07-21T04:24:32;25.73;;;20.20;;
54823;SDS011;40724;53.196;5.980;2022-07-21T04:26:58;27.38;;;21.52;;
54823;SDS011;40724;53.196;5.980;2022-07-21T04:29:24;24.73;;;18.45;;
54823;SDS011;40724;53.196;5.980;2022-07-21T04:31:51;26.83;;;19.25;;
54823;SDS011;40724;53.196;5.980;2022-07-21T04:34:17;26.42;;;20.20;;
54823;SDS011;40724;53.196;5.980;2022-07-21T04:36:43;26.38;;;19.13;;
54823;SDS011;40724;53.196;5.980;2022-07-21T04:39:09;26.83;;;21.38;;
54823;SDS011;40724;53.196;5.980;2022-07-21T04:41:35;29.05;;;21.67;;
54823;SDS011;40724;53.196;5.980;2022-07-21T04:44:01;27.20;;;21.05;;
54823;SDS011;40724;53.196;5.980;2022-07-21T04:46:27;30.13;;;21.92;;
54823;SDS011;40724;53.196;5.980;2022-07-21T04:48:53;26.00;;;19.40;;
54823;SDS011;40724;53.196;5.980;2022-07-21T04:51:19;25.15;;;19.08;;
54823;SDS011;40724;53.196;5.980;2022-07-21T04:53:46;23.70;;;19.30;;
54823;SDS011;40724;53.196;5.980;2022-07-21T04:56:12;18.52;;;16.55;;
54823;SDS011;40724;53.196;5.980;2022-07-21T04:58:38;27.42;;;19.20;;
54823;SDS011;40724;53.196;5.980;2022-07-21T05:01:04;21.65;;;17.65;;
54823;SDS011;40724;53.196;5.980;2022-07-21T05:03:30;19.05;;;15.82;;
54823;SDS011;40724;53.196;5.980;2022-07-21T05:05:56;17.77;;;14.90;;
54823;SDS011;40724;53.196;5.980;2022-07-21T05:08:23;17.30;;;15.48;;
54823;SDS011;40724;53.196;5.980;2022-07-21T05:10:51;20.05;;;15.63;;
54823;SDS011;40724;53.196;5.980;2022-07-21T05:13:17;17.10;;;15.15;;
54823;SDS011;40724;53.196;5.980;2022-07-21T05:15:44;19.83;;;16.50;;
54823;SDS011;40724;53.196;5.980;2022-07-21T05:18:10;20.15;;;17.30;;
54823;SDS011;40724;53.196;5.980;2022-07-21T05:20:36;20.38;;;17.40;;
54823;SDS011;40724;53.196;5.980;2022-07-21T05:23:02;22.45;;;18.45;;
54823;SDS011;40724;53.196;5.980;2022-07-21T05:25:29;24.23;;;18.67;;
54823;SDS011;40724;53.196;5.980;2022-07-21T05:27:57;23.35;;;17.52;;
54823;SDS011;40724;53.196;5.980;2022-07-21T05:30:23;20.40;;;18.13;;
54823;SDS011;40724;53.196;5.980;2022-07-21T05:32:49;25.00;;;19.02;;
54823;SDS011;40724;53.196;5.980;2022-07-21T05:35:15;20.92;;;17.33;;
54823;SDS011;40724;53.196;5.980;2022-07-21T05:37:42;22.55;;;17.63;;
54823;SDS011;40724;53.196;5.980;2022-07-21T05:40:08;24.05;;;18.42;;
54823;SDS011;40724;53.196;5.980;2022-07-21T05:42:35;22.92;;;18.00;;
54823;SDS011;40724;53.196;5.980;2022-07-21T05:45:02;20.83;;;17.27;;
54823;SDS011;40724;53.196;5.980;2022-07-21T05:47:28;19.98;;;17.55;;
54823;SDS011;40724;53.196;5.980;2022-07-21T05:49:56;19.73;;;16.65;;
54823;SDS011;40724;53.196;5.980;2022-07-21T05:52:22;20.50;;;16.15;;
54823;SDS011;40724;53.196;5.980;2022-07-21T05:54:48;20.20;;;15.75;;
54823;SDS011;40724;53.196;5.980;2022-07-21T05:57:15;20.70;;;15.23;;
54823;SDS011;40724;53.196;5.980;2022-07-21T05:59:41;20.23;;;16.60;;
54823;SDS011;40724;53.196;5.980;2022-07-21T06:02:07;21.50;;;16.50;;
54823;SDS011;40724;53.196;5.980;2022-07-21T06:04:33;18.33;;;15.30;;
54823;SDS011;40724;53.196;5.980;2022-07-21T06:07:00;20.45;;;16.35;;
54823;SDS011;40724;53.196;5.980;2022-07-21T06:09:26;21.10;;;16.30;;
54823;SDS011;40724;53.196;5.980;2022-07-21T06:11:52;20.88;;;17.73;;
54823;SDS011;40724;53.196;5.980;2022-07-21T06:14:18;20.65;;;18.20;;
54823;SDS011;40724;53.196;5.980;2022-07-21T06:16:45;21.73;;;18.23;;
54823;SDS011;40724;53.196;5.980;2022-07-21T06:19:11;22.52;;;18.13;;
54823;SDS011;40724;53.196;5.980;2022-07-21T06:21:37;23.83;;;19.02;;
54823;SDS011;40724;53.196;5.980;2022-07-21T06:24:03;24.25;;;18.77;;
54823;SDS011;40724;53.196;5.980;2022-07-21T06:26:29;30.00;;;19.13;;
54823;SDS011;40724;53.196;5.980;2022-07-21T06:28:55;23.63;;;19.65;;
54823;SDS011;40724;53.196;5.980;2022-07-21T06:31:22;25.20;;;18.77;;
54823;SDS011;40724;53.196;5.980;2022-07-21T06:33:48;25.73;;;19.15;;
54823;SDS011;40724;53.196;5.980;2022-07-21T06:36:14;23.20;;;17.85;;
54823;SDS011;40724;53.196;5.980;2022-07-21T06:38:40;23.45;;;16.98;;
54823;SDS011;40724;53.196;5.980;2022-07-21T06:41:06;21.13;;;17.60;;
54823;SDS011;40724;53.196;5.980;2022-07-21T06:43:34;20.35;;;16.95;;
54823;SDS011;40724;53.196;5.980;2022-07-21T06:46:00;20.70;;;15.13;;
54823;SDS011;40724;53.196;5.980;2022-07-21T06:48:26;19.52;;;14.73;;
54823;SDS011;40724;53.196;5.980;2022-07-21T06:50:53;18.42;;;14.80;;
54823;SDS011;40724;53.196;5.980;2022-07-21T06:53:19;18.38;;;14.40;;
54823;SDS011;40724;53.196;5.980;2022-07-21T06:55:45;17.58;;;13.95;;
54823;SDS011;40724;53.196;5.980;2022-07-21T06:58:12;16.70;;;13.63;;
54823;SDS011;40724;53.196;5.980;2022-07-21T07:00:39;16.95;;;12.85;;
54823;SDS011;40724;53.196;5.980;2022-07-21T07:03:05;16.85;;;13.88;;
54823;SDS011;40724;53.196;5.980;2022-07-21T07:05:31;17.90;;;13.52;;
54823;SDS011;40724;53.196;5.980;2022-07-21T07:07:58;18.73;;;14.48;;
54823;SDS011;40724;53.196;5.980;2022-07-21T07:10:24;16.92;;;13.43;;
54823;SDS011;40724;53.196;5.980;2022-07-21T07:12:51;16.98;;;13.88;;
54823;SDS011;40724;53.196;5.980;2022-07-21T07:15:17;17.60;;;12.77;;
54823;SDS011;40724;53.196;5.980;2022-07-21T07:17:43;17.17;;;13.98;;
54823;SDS011;40724;53.196;5.980;2022-07-21T07:20:09;23.67;;;17.02;;
54823;SDS011;40724;53.196;5.980;2022-07-21T07:22:37;22.40;;;18.33;;
54823;SDS011;40724;53.196;5.980;2022-07-21T07:25:04;21.63;;;17.50;;
54823;SDS011;40724;53.196;5.980;2022-07-21T07:27:30;23.13;;;19.15;;
54823;SDS011;40724;53.196;5.980;2022-07-21T07:29:56;24.70;;;18.92;;
54823;SDS011;40724;53.196;5.980;2022-07-21T07:32:22;21.75;;;19.35;;
54823;SDS011;40724;53.196;5.980;2022-07-21T07:34:49;22.40;;;19.48;;
54823;SDS011;40724;53.196;5.980;2022-07-21T07:37:15;24.13;;;18.63;;
54823;SDS011;40724;53.196;5.980;2022-07-21T07:39:41;23.38;;;17.75;;
54823;SDS011;40724;53.196;5.980;2022-07-21T07:42:07;25.55;;;18.83;;
54823;SDS011;40724;53.196;5.980;2022-07-21T07:44:33;26.95;;;19.75;;
54823;SDS011;40724;53.196;5.980;2022-07-21T07:46:59;20.70;;;17.20;;
54823;SDS011;40724;53.196;5.980;2022-07-21T07:49:30;24.42;;;18.45;;
54823;SDS011;40724;53.196;5.980;2022-07-21T07:51:57;25.88;;;20.08;;
54823;SDS011;40724;53.196;5.980;2022-07-21T07:54:23;22.00;;;18.35;;
54823;SDS011;40724;53.196;5.980;2022-07-21T07:56:50;27.70;;;19.42;;
54823;SDS011;40724;53.196;5.980;2022-07-21T07:59:17;25.60;;;20.20;;
54823;SDS011;40724;53.196;5.980;2022-07-21T08:01:43;23.23;;;18.27;;
54823;SDS011;40724;53.196;5.980;2022-07-21T08:04:10;22.35;;;19.25;;
54823;SDS011;40724;53.196;5.980;2022-07-21T08:06:36;25.70;;;18.73;;
54823;SDS011;40724;53.196;5.980;2022-07-21T08:09:02;24.38;;;19.17;;
54823;SDS011;40724;53.196;5.980;2022-07-21T08:11:29;22.27;;;18.45;;
54823;SDS011;40724;53.196;5.980;2022-07-21T08:13:55;23.25;;;18.83;;
54823;SDS011;40724;53.196;5.980;2022-07-21T08:16:22;26.23;;;19.67;;
54823;SDS011;40724;53.196;5.980;2022-07-21T08:18:48;26.13;;;18.92;;
54823;SDS011;40724;53.196;5.980;2022-07-21T08:21:14;24.05;;;19.92;;
54823;SDS011;40724;53.196;5.980;2022-07-21T08:23:40;22.88;;;18.35;;
54823;SDS011;40724;53.196;5.980;2022-07-21T08:26:06;21.90;;;17.23;;
54823;SDS011;40724;53.196;5.980;2022-07-21T08:28:32;24.58;;;20.67;;
54823;SDS011;40724;53.196;5.980;2022-07-21T08:30:58;27.42;;;20.17;;
54823;SDS011;40724;53.196;5.980;2022-07-21T08:33:25;23.23;;;20.67;;
54823;SDS011;40724;53.196;5.980;2022-07-21T08:35:51;29.40;;;21.70;;
54823;SDS011;40724;53.196;5.980;2022-07-21T08:38:18;23.35;;;20.25;;
54823;SDS011;40724;53.196;5.980;2022-07-21T08:40:45;27.85;;;22.30;;
54823;SDS011;40724;53.196;5.980;2022-07-21T08:43:12;29.58;;;22.48;;
54823;SDS011;40724;53.196;5.980;2022-07-21T08:45:40;27.65;;;20.77;;
54823;SDS011;40724;53.196;5.980;2022-07-21T08:48:06;27.67;;;21.65;;
54823;SDS011;40724;53.196;5.980;2022-07-21T08:50:34;28.80;;;23.90;;
54823;SDS011;40724;53.196;5.980;2022-07-21T08:53:01;29.92;;;24.52;;
54823;SDS011;40724;53.196;5.980;2022-07-21T08:55:31;31.08;;;24.08;;
54823;SDS011;40724;53.196;5.980;2022-07-21T08:57:57;29.58;;;24.75;;
54823;SDS011;40724;53.196;5.980;2022-07-21T09:00:24;33.53;;;26.17;;
54823;SDS011;40724;53.196;5.980;2022-07-21T09:03:07;32.03;;;24.90;;
54823;SDS011;40724;53.196;5.980;2022-07-21T09:05:33;31.17;;;24.05;;
54823;SDS011;40724;53.196;5.980;2022-07-21T09:08:00;31.02;;;25.15;;
54823;SDS011;40724;53.196;5.980;2022-07-21T09:10:27;30.33;;;25.20;;
54823;SDS011;40724;53.196;5.980;2022-07-21T09:12:55;32.63;;;25.90;;
54823;SDS011;40724;53.196;5.980;2022-07-21T09:15:23;30.02;;;24.67;;
54823;SDS011;40724;53.196;5.980;2022-07-21T09:20:34;22.63;;;17.85;;
54823;SDS011;40724;53.196;5.980;2022-07-21T09:23:07;18.67;;;14.43;;
54823;SDS011;40724;53.196;5.980;2022-07-21T09:25:35;17.27;;;14.02;;
54823;SDS011;40724;53.196;5.980;2022-07-21T09:31:07;20.65;;;16.80;;
54823;SDS011;40724;53.196;5.980;2022-07-21T09:33:38;17.55;;;15.20;;
54823;SDS011;40724;53.196;5.980;2022-07-21T09:36:37;19.05;;;15.77;;
54823;SDS011;40724;53.196;5.980;2022-07-21T09:38:57;18.95;;;14.95;;
54823;SDS011;40724;53.196;5.980;2022-07-21T09:41:24;21.33;;;17.35;;
54823;SDS011;40724;53.196;5.980;2022-07-21T09:43:51;19.50;;;16.02;;
54823;SDS011;40724;53.196;5.980;2022-07-21T09:46:21;18.98;;;16.98;;
54823;SDS011;40724;53.196;5.980;2022-07-21T09:48:50;19.40;;;15.80;;
54823;SDS011;40724;53.196;5.980;2022-07-21T09:51:20;18.60;;;14.77;;
54823;SDS011;40724;53.196;5.980;2022-07-21T09:56:20;13.65;;;10.65;;
54823;SDS011;40724;53.196;5.980;2022-07-21T09:58:46;14.48;;;11.65;;
54823;SDS011;40724;53.196;5.980;2022-07-21T10:01:13;14.70;;;10.85;;
54823;SDS011;40724;53.196;5.980;2022-07-21T10:03:41;13.57;;;11.88;;
54823;SDS011;40724;53.196;5.980;2022-07-21T10:06:08;16.23;;;13.77;;
54823;SDS011;40724;53.196;5.980;2022-07-21T10:08:35;16.30;;;13.48;;
54823;SDS011;40724;53.196;5.980;2022-07-21T10:11:03;14.07;;;12.45;;
54823;SDS011;40724;53.196;5.980;2022-07-21T10:13:29;15.10;;;13.27;;
54823;SDS011;40724;53.196;5.980;2022-07-21T10:15:55;14.75;;;12.60;;
54823;SDS011;40724;53.196;5.980;2022-07-21T10:18:24;14.70;;;12.63;;
54823;SDS011;40724;53.196;5.980;2022-07-21T10:20:52;17.40;;;13.77;;
54823;SDS011;40724;53.196;5.980;2022-07-21T10:23:42;19.13;;;14.15;;
54823;SDS011;40724;53.196;5.980;2022-07-21T10:26:07;19.35;;;14.60;;
54823;SDS011;40724;53.196;5.980;2022-07-21T10:28:34;18.63;;;15.07;;
54823;SDS011;40724;53.196;5.980;2022-07-21T10:31:11;17.75;;;15.00;;
54823;SDS011;40724;53.196;5.980;2022-07-21T10:36:11;20.67;;;15.48;;
54823;SDS011;40724;53.196;5.980;2022-07-21T10:41:38;18.92;;;15.88;;
54823;SDS011;40724;53.196;5.980;2022-07-21T10:44:37;16.92;;;13.80;;
54823;SDS011;40724;53.196;5.980;2022-07-21T10:47:04;19.67;;;16.08;;
54823;SDS011;40724;53.196;5.980;2022-07-21T10:57:38;15.90;;;13.73;;
54823;SDS011;40724;53.196;5.980;2022-07-21T11:00:21;14.60;;;12.88;;
54823;SDS011;40724;53.196;5.980;2022-07-21T11:02:52;16.20;;;13.30;;
54823;SDS011;40724;53.196;5.980;2022-07-21T11:05:19;12.57;;;10.60;;
54823;SDS011;40724;53.196;5.980;2022-07-21T11:10:30;13.35;;;9.70;;
54823;SDS011;40724;53.196;5.980;2022-07-21T11:12:57;12.88;;;9.88;;
54823;SDS011;40724;53.196;5.980;2022-07-21T11:15:42;11.65;;;9.80;;
54823;SDS011;40724;53.196;5.980;2022-07-21T11:18:10;11.68;;;9.63;;
54823;SDS011;40724;53.196;5.980;2022-07-21T11:20:36;10.45;;;8.93;;
54823;SDS011;40724;53.196;5.980;2022-07-21T11:23:02;10.30;;;8.52;;
54823;SDS011;40724;53.196;5.980;2022-07-21T11:25:29;19.67;;;11.35;;
54823;SDS011;40724;53.196;5.980;2022-07-21T11:27:55;8.73;;;7.30;;
54823;SDS011;40724;53.196;5.980;2022-07-21T11:30:22;8.23;;;6.65;;
54823;SDS011;40724;53.196;5.980;2022-07-21T11:32:48;6.15;;;5.10;;
54823;SDS011;40724;53.196;5.980;2022-07-21T11:35:14;5.85;;;5.20;;
54823;SDS011;40724;53.196;5.980;2022-07-21T11:37:44;7.28;;;4.18;;
54823;SDS011;40724;53.196;5.980;2022-07-21T11:40:18;4.28;;;3.08;;
54823;SDS011;40724;53.196;5.980;2022-07-21T11:42:45;5.22;;;3.60;;
54823;SDS011;40724;53.196;5.980;2022-07-21T11:45:12;4.10;;;2.65;;
54823;SDS011;40724;53.196;5.980;2022-07-21T11:47:38;4.57;;;3.20;;
54823;SDS011;40724;53.196;5.980;2022-07-21T11:50:14;3.88;;;2.70;;
54823;SDS011;40724;53.196;5.980;2022-07-21T11:52:41;5.78;;;3.53;;
54823;SDS011;40724;53.196;5.980;2022-07-21T11:55:09;3.90;;;3.17;;
54823;SDS011;40724;53.196;5.980;2022-07-21T11:57:40;4.47;;;3.60;;
54823;SDS011;40724;53.196;5.980;2022-07-21T12:00:07;4.05;;;3.35;;
54823;SDS011;40724;53.196;5.980;2022-07-21T12:02:34;5.13;;;3.90;;
54823;SDS011;40724;53.196;5.980;2022-07-21T12:05:01;3.80;;;3.03;;
54823;SDS011;40724;53.196;5.980;2022-07-21T12:07:29;3.63;;;3.20;;
54823;SDS011;40724;53.196;5.980;2022-07-21T12:09:57;3.80;;;2.85;;
54823;SDS011;40724;53.196;5.980;2022-07-21T12:12:28;4.40;;;3.55;;
54823;SDS011;40724;53.196;5.980;2022-07-21T12:14:55;12.15;;;3.83;;
54823;SDS011;40724;53.196;5.980;2022-07-21T12:17:32;4.45;;;3.53;;
54823;SDS011;40724;53.196;5.980;2022-07-21T12:19:58;4.43;;;3.47;;
54823;SDS011;40724;53.196;5.980;2022-07-21T12:22:44;4.70;;;3.65;;
54823;SDS011;40724;53.196;5.980;2022-07-21T12:25:12;6.15;;;4.35;;
54823;SDS011;40724;53.196;5.980;2022-07-21T12:27:39;5.78;;;4.85;;
54823;SDS011;40724;53.196;5.980;2022-07-21T12:30:08;5.35;;;4.85;;
54823;SDS011;40724;53.196;5.980;2022-07-21T12:32:38;6.68;;;5.28;;
54823;SDS011;40724;53.196;5.980;2022-07-21T12:35:05;7.32;;;5.78;;
54823;SDS011;40724;53.196;5.980;2022-07-21T12:40:18;6.22;;;5.57;;
54823;SDS011;40724;53.196;5.980;2022-07-21T12:42:47;8.18;;;6.40;;
54823;SDS011;40724;53.196;5.980;2022-07-21T12:47:39;7.65;;;5.65;;
54823;SDS011;40724;53.196;5.980;2022-07-21T12:50:06;6.68;;;5.45;;
54823;SDS011;40724;53.196;5.980;2022-07-21T12:52:33;7.63;;;5.53;;
54823;SDS011;40724;53.196;5.980;2022-07-21T12:55:00;8.60;;;5.97;;
54823;SDS011;40724;53.196;5.980;2022-07-21T12:57:27;6.85;;;5.53;;
54823;SDS011;40724;53.196;5.980;2022-07-21T12:59:53;6.30;;;5.43;;
54823;SDS011;40724;53.196;5.980;2022-07-21T13:02:20;7.68;;;4.95;;
54823;SDS011;40724;53.196;5.980;2022-07-21T13:04:46;6.70;;;5.82;;
54823;SDS011;40724;53.196;5.980;2022-07-21T13:07:12;6.15;;;5.55;;
54823;SDS011;40724;53.196;5.980;2022-07-21T13:09:38;6.68;;;5.63;;
54823;SDS011;40724;53.196;5.980;2022-07-21T13:12:04;6.75;;;5.60;;
54823;SDS011;40724;53.196;5.980;2022-07-21T13:14:31;7.22;;;5.43;;
54823;SDS011;40724;53.196;5.980;2022-07-21T13:16:57;9.18;;;5.32;;
54823;SDS011;40724;53.196;5.980;2022-07-21T13:19:23;8.15;;;6.13;;
54823;SDS011;40724;53.196;5.980;2022-07-21T13:21:50;7.85;;;6.35;;
54823;SDS011;40724;53.196;5.980;2022-07-21T13:24:16;9.20;;;7.32;;
54823;SDS011;40724;53.196;5.980;2022-07-21T13:26:43;7.47;;;6.25;;
54823;SDS011;40724;53.196;5.980;2022-07-21T13:29:09;7.57;;;6.15;;
54823;SDS011;40724;53.196;5.980;2022-07-21T13:31:35;7.93;;;6.75;;
54823;SDS011;40724;53.196;5.980;2022-07-21T13:34:05;11.02;;;6.05;;
54823;SDS011;40724;53.196;5.980;2022-07-21T13:36:36;8.82;;;5.88;;
54823;SDS011;40724;53.196;5.980;2022-07-21T13:39:04;7.70;;;6.28;;
54823;SDS011;40724;53.196;5.980;2022-07-21T13:41:31;8.38;;;5.60;;
54823;SDS011;40724;53.196;5.980;2022-07-21T13:43:58;9.27;;;7.05;;
54823;SDS011;40724;53.196;5.980;2022-07-21T13:46:24;6.10;;;4.88;;
54823;SDS011;40724;53.196;5.980;2022-07-21T13:48:50;9.00;;;6.68;;
54823;SDS011;40724;53.196;5.980;2022-07-21T13:51:17;7.32;;;5.28;;
54823;SDS011;40724;53.196;5.980;2022-07-21T13:53:44;7.65;;;5.50;;
54823;SDS011;40724;53.196;5.980;2022-07-21T13:56:11;8.50;;;5.93;;
54823;SDS011;40724;53.196;5.980;2022-07-21T13:58:38;10.65;;;6.05;;
54823;SDS011;40724;53.196;5.980;2022-07-21T14:01:04;8.52;;;5.03;;
54823;SDS011;40724;53.196;5.980;2022-07-21T14:03:32;7.18;;;4.30;;
54823;SDS011;40724;53.196;5.980;2022-07-21T14:05:59;8.68;;;5.43;;
54823;SDS011;40724;53.196;5.980;2022-07-21T14:08:25;6.13;;;4.70;;
54823;SDS011;40724;53.196;5.980;2022-07-21T14:10:52;8.75;;;6.22;;
54823;SDS011;40724;53.196;5.980;2022-07-21T14:13:18;8.35;;;6.22;;
54823;SDS011;40724;53.196;5.980;2022-07-21T14:15:44;8.75;;;6.35;;
54823;SDS011;40724;53.196;5.980;2022-07-21T14:18:11;8.27;;;6.32;;
54823;SDS011;40724;53.196;5.980;2022-07-21T14:20:37;9.70;;;7.05;;
54823;SDS011;40724;53.196;5.980;2022-07-21T14:23:03;9.30;;;6.90;;
54823;SDS011;40724;53.196;5.980;2022-07-21T14:25:30;10.70;;;7.55;;
54823;SDS011;40724;53.196;5.980;2022-07-21T14:27:56;8.07;;;6.43;;
54823;SDS011;40724;53.196;5.980;2022-07-21T14:30:24;9.10;;;6.00;;
54823;SDS011;40724;53.196;5.980;2022-07-21T14:32:50;8.82;;;6.70;;
54823;SDS011;40724;53.196;5.980;2022-07-21T14:35:17;9.98;;;7.00;;
54823;SDS011;40724;53.196;5.980;2022-07-21T14:37:44;8.85;;;6.85;;
54823;SDS011;40724;53.196;5.980;2022-07-21T14:40:11;6.88;;;6.18;;
54823;SDS011;40724;53.196;5.980;2022-07-21T14:42:37;9.55;;;7.07;;
54823;SDS011;40724;53.196;5.980;2022-07-21T14:45:04;9.32;;;7.93;;
54823;SDS011;40724;53.196;5.980;2022-07-21T14:47:30;9.38;;;7.32;;
54823;SDS011;40724;53.196;5.980;2022-07-21T14:49:57;8.95;;;7.80;;
54823;SDS011;40724;53.196;5.980;2022-07-21T14:52:23;10.90;;;9.10;;
54823;SDS011;40724;53.196;5.980;2022-07-21T14:54:49;12.02;;;10.52;;
54823;SDS011;40724;53.196;5.980;2022-07-21T14:57:16;14.80;;;9.90;;
54823;SDS011;40724;53.196;5.980;2022-07-21T14:59:42;15.52;;;11.02;;